ADDS METAR Data INFO
IDs: Format: Raw Decoded Include TAF

Data at: 0946 UTC 25 Jun 2018

KIND 250854Z 07008KT 10SM SCT190 SCT250 21/17 A3001 RMK AO2 SLP157 T02110167 50001
KIND 250754Z 05008KT 10SM FEW190 SCT250 21/17 A3002 RMK AO2 SLP157 T02060172
KIND 250654Z 04008KT 10SM CLR 21/17 A3001 RMK AO2 SLP156 T02110172
KIND 250554Z 04007KT 10SM SCT250 21/18 A3001 RMK AO2 SLP155 T02110178 10267 20211 55005
KIND 250454Z 03005KT 10SM FEW130 FEW250 22/17 A3001 RMK AO2 SLP155 T02220167 402940178
KIND 250354Z 03003KT 10SM FEW130 SCT250 23/17 A3002 RMK AO2 SLP158 T02330167
KIND 250254Z 05004KT 10SM FEW050 SCT130 SCT250 24/16 A3003 RMK AO2 SLP160 T02390161 51026
KIND 250154Z 04006KT 10SM FEW050 SCT130 SCT250 24/16 A3000 RMK AO2 SLP152 T02440161
KIND 250054Z 03006KT 10SM FEW050 SCT130 BKN250 26/17 A2998 RMK AO2 SLP145 T02560167
KIND 242354Z 36008KT 10SM FEW050 SCT130 OVC220 27/17 A2995 RMK AO2 SLP134 T02670167 10294 20267 57013
KIND 242254Z 33007KT 10SM FEW050 SCT130 BKN250 27/16 A2996 RMK AO2 SLP140 T02720161
KIND 242154Z 34008KT 10SM FEW050 SCT250 28/14 A2997 RMK AO2 SLP141 T02830139
KIND 242054Z 34005KT 10SM SCT050 SCT250 29/14 A2998 RMK AO2 SLP146 T02890144 53002
KIND 241954Z 33008KT 10SM SCT050 SCT250 29/17 A2998 RMK AO2 SLP144 T02940167
KIND 241854Z VRB04KT 10SM SCT043 SCT250 28/17 A2998 RMK AO2 SLP145 T02830172
KIND 241754Z VRB04KT 10SM SCT040 SCT250 27/17 A2998 RMK AO2 SLP145 T02720172 10278 20206 53004
KIND 241654Z VRB04KT 10SM SCT031 SCT036 SCT250 27/18 A2997 RMK AO2 SLP143 T02670178
KIND 241554Z VRB03KT 10SM SCT030 SCT250 25/18 A2996 RMK AO2 SLP142 T02500178
KIND 241454Z VRB05KT 10SM SCT024 SCT250 24/18 A2996 RMK AO2 SLP140 T02440183 51022
KIND 241354Z 29007KT 10SM SCT018 SCT250 23/17 A2995 RMK AO2 SLP136 T02330172
KIND 241254Z 27007KT 10SM FEW015 FEW100 22/18 A2992 RMK AO2 SLP126 T02220178
KIND 241154Z 31005KT 10SM FEW080 21/18 A2990 RMK AO2 SLP119 T02060183 10206 20178 50010
KIND 241054Z 28004KT 5SM BR FEW080 18/18 A2990 RMK AO2 SLP120 T01830178
KIND 240954Z 25006KT 8SM FEW080 18/18 A2988 RMK AO2 SLP113 T01830178
KIND 240854Z 24004KT 10SM OVC080 19/18 A2987 RMK AO2 SLP108 T01940183 53003
KIND 240754Z 22003KT 9SM OVC080 19/18 A2985 RMK AO2 SLP104 T01940183
KIND 240654Z 24003KT 10SM OVC080 19/18 A2986 RMK AO2 SLP105 T01940183
KIND 240633Z 21003KT 9SM SCT025 OVC080 19/18 A2985 RMK AO2 T01940183
KIND 240554Z 22003KT 10SM OVC026 19/18 A2986 RMK AO2 SLP105 T01890183 10222 20183 50010
KIND 240546Z 21004KT 10SM BKN026 OVC050 19/18 A2986 RMK AO2 T01890183
KIND 240454Z 21005KT 10SM BKN080 19/18 A2986 RMK AO2 SLP106 T01890183 402390183
KIND 240354Z 00000KT 10SM FEW080 FEW250 19/18 A2984 RMK AO2 SLP102 T01940183
KIND 240254Z 27003KT 10SM FEW050 SCT080 SCT250 21/18 A2983 RMK AO2 SLP095 T02060183 53004
KIND 240154Z 30004KT 10SM FEW040 SCT080 SCT250 21/18 A2982 RMK AO2 SLP092 T02060183
KIND 240054Z 22004KT 10SM FEW040 BKN060 BKN250 22/18 A2981 RMK AO2 SLP089 T02170183
KIND 232354Z 29005KT 10SM FEW028 BKN043 OVC070 22/18 A2981 RMK AO2 RAB06E16B47E54 SLP090 P0000 60000 T02220178 10239 20222 53003
KIND 232254Z 29005KT 10SM FEW026 SCT042 OVC060 22/18 A2980 RMK AO2 SLP087 T02220178
KIND 232154Z 25008KT 10SM FEW025 SCT037 OVC060 22/17 A2981 RMK AO2 SLP089 T02220172